createdAt,value
2022-09-25T00:00:03.451Z,14.20
2022-09-25T00:05:25.187Z,14.00
2022-09-25T00:10:50.520Z,13.95
2022-09-25T00:16:15.887Z,15.90
2022-09-25T00:21:38.314Z,15.95
2022-09-25T00:27:01.134Z,18.05
2022-09-25T00:32:23.063Z,14.52
2022-09-25T00:37:44.799Z,14.30
2022-09-25T00:43:13.990Z,13.77
2022-09-25T00:48:36.708Z,13.70
2022-09-25T00:54:01.252Z,13.98
2022-09-25T00:59:29.574Z,18.77
2022-09-25T01:04:51.691Z,15.95
2022-09-25T01:10:14.312Z,16.92
2022-09-25T01:15:49.036Z,13.95
2022-09-25T01:21:33.069Z,14.98
2022-09-25T01:27:03.850Z,14.95
2022-09-25T01:33:07.850Z,15.23
2022-09-25T01:38:35.671Z,17.60
2022-09-25T01:44:02.971Z,16.77
2022-09-25T01:49:30.005Z,16.42
2022-09-25T01:54:56.630Z,15.07
2022-09-25T02:00:21.875Z,15.48
2022-09-25T02:05:52.165Z,15.02
2022-09-25T02:11:14.306Z,14.73
2022-09-25T02:16:39.050Z,14.63
2022-09-25T02:22:23.386Z,13.93
2022-09-25T02:27:46.116Z,14.85
2022-09-25T02:33:07.854Z,13.63
2022-09-25T02:38:32.780Z,14.07
2022-09-25T02:44:05.687Z,12.85
2022-09-25T02:49:52.058Z,13.13
2022-09-25T02:55:32.493Z,13.10
2022-09-25T03:00:56.729Z,16.77
2022-09-25T03:06:19.408Z,17.27
2022-09-25T03:11:42.197Z,18.48
2022-09-25T03:17:06.687Z,18.92
2022-09-25T03:22:28.421Z,20.45
2022-09-25T03:27:50.136Z,20.77
2022-09-25T03:33:13.011Z,20.35
2022-09-25T03:38:35.167Z,20.90
2022-09-25T03:43:57.722Z,21.20
2022-09-25T03:49:19.446Z,21.80
2022-09-25T03:54:41.333Z,20.25
2022-09-25T04:00:04.145Z,21.95
2022-09-25T04:05:25.993Z,19.52
2022-09-25T04:10:47.969Z,22.27
2022-09-25T04:16:10.794Z,18.80
2022-09-25T04:21:32.877Z,21.50
2022-09-25T04:26:54.707Z,18.48
2022-09-25T04:32:35.632Z,19.75
2022-09-25T04:37:57.334Z,19.70
2022-09-25T04:43:19.036Z,19.98
2022-09-25T04:48:45.109Z,20.83
2022-09-25T04:54:06.920Z,19.23
2022-09-25T04:59:29.192Z,22.83
2022-09-25T05:04:50.970Z,22.08
2022-09-25T05:10:13.494Z,20.35
2022-09-25T05:15:36.151Z,22.70
2022-09-25T05:20:57.950Z,23.70
2022-09-25T05:26:22.532Z,22.15
2022-09-25T05:31:47.067Z,20.27
2022-09-25T05:37:08.971Z,20.83
2022-09-25T05:42:31.037Z,21.98
2022-09-25T05:48:04.352Z,22.10
2022-09-25T05:53:26.947Z,23.33
2022-09-25T05:58:49.221Z,24.25
2022-09-25T06:04:10.897Z,19.90
2022-09-25T06:09:32.822Z,20.33
2022-09-25T06:14:54.534Z,19.85
2022-09-25T06:20:16.651Z,19.45
2022-09-25T06:25:38.422Z,18.63
2022-09-25T06:31:01.463Z,18.45
2022-09-25T06:36:23.310Z,19.58
2022-09-25T06:41:45.338Z,17.20
2022-09-25T06:47:07.014Z,20.35
2022-09-25T06:52:28.792Z,17.38
2022-09-25T06:57:50.493Z,18.10
2022-09-25T07:03:30.688Z,17.13
2022-09-25T07:08:52.940Z,15.23
2022-09-25T07:14:14.681Z,13.77
2022-09-25T07:19:36.411Z,13.60
2022-09-25T07:24:58.170Z,12.95
2022-09-25T07:30:19.938Z,12.57
2022-09-25T07:35:41.775Z,13.73
2022-09-25T07:41:06.227Z,14.77
2022-09-25T07:46:28.562Z,14.50
2022-09-25T07:51:50.273Z,13.35
2022-09-25T07:57:13.213Z,13.50
2022-09-25T08:02:35.461Z,13.43
2022-09-25T08:07:57.194Z,12.38
2022-09-25T08:13:20.987Z,13.48
2022-09-25T08:18:46.120Z,17.02
2022-09-25T08:24:08.083Z,13.57
2022-09-25T08:29:30.896Z,16.02
2022-09-25T08:34:52.939Z,16.98
2022-09-25T08:40:30.899Z,16.58
2022-09-25T08:46:14.255Z,13.95
2022-09-25T08:51:43.214Z,13.95
2022-09-25T08:57:29.497Z,13.50
2022-09-25T09:02:56.118Z,15.77
2022-09-25T09:08:25.270Z,13.70
2022-09-25T09:14:13.083Z,13.88
2022-09-25T09:19:34.873Z,13.80
2022-09-25T09:25:15.432Z,13.07
2022-09-25T09:30:49.150Z,11.90
2022-09-25T09:36:38.101Z,12.05
2022-09-25T09:42:27.994Z,10.50
2022-09-25T09:48:15.302Z,9.15
2022-09-25T09:53:41.161Z,9.18
2022-09-25T09:59:12.718Z,10.85
2022-09-25T10:04:37.857Z,8.85
2022-09-25T10:09:59.999Z,8.45
2022-09-25T10:15:30.092Z,9.52
2022-09-25T10:20:59.146Z,10.45
2022-09-25T10:26:35.779Z,10.07
2022-09-25T10:32:04.163Z,10.13
2022-09-25T10:37:34.794Z,11.23
2022-09-25T10:43:11.682Z,9.25
2022-09-25T10:48:54.296Z,11.63
2022-09-25T10:54:16.544Z,9.18
2022-09-25T10:59:38.393Z,9.32
2022-09-25T11:05:00.349Z,8.95
2022-09-25T11:10:43.439Z,12.85
2022-09-25T11:16:10.808Z,14.80
2022-09-25T11:21:56.918Z,16.23
2022-09-25T11:27:36.609Z,20.45
2022-09-25T11:33:29.518Z,17.63
2022-09-25T11:39:14.779Z,22.27
2022-09-25T11:44:54.348Z,18.75
2022-09-25T11:50:17.973Z,18.13
2022-09-25T11:55:55.687Z,20.92
2022-09-25T12:01:34.973Z,22.10
2022-09-25T12:07:20.102Z,17.88
2022-09-25T12:12:53.771Z,20.67
2022-09-25T12:18:15.447Z,23.17
2022-09-25T12:24:32.671Z,21.65
2022-09-25T12:30:20.279Z,23.33
2022-09-25T12:36:04.125Z,20.75
2022-09-25T12:41:47.367Z,23.90
2022-09-25T12:47:26.303Z,21.35
2022-09-25T12:53:05.538Z,17.63
2022-09-25T12:58:50.591Z,20.58
2022-09-25T13:04:34.505Z,17.13
2022-09-25T13:09:56.246Z,14.88
2022-09-25T13:15:23.511Z,13.70
2022-09-25T13:20:52.492Z,14.15
2022-09-25T13:26:18.992Z,13.95
2022-09-25T13:31:44.857Z,11.75
2022-09-25T13:37:10.227Z,11.13
2022-09-25T13:42:42.065Z,11.27
2022-09-25T13:48:08.256Z,13.30
2022-09-25T13:53:51.960Z,10.88
2022-09-25T13:59:14.929Z,12.00
2022-09-25T14:04:38.905Z,10.57
2022-09-25T14:10:02.210Z,9.93
2022-09-25T14:15:35.472Z,10.55
2022-09-25T14:21:00.165Z,9.48
2022-09-25T14:26:28.806Z,11.18
2022-09-25T14:31:59.418Z,8.25
2022-09-25T14:37:36.164Z,13.55
2022-09-25T14:43:15.812Z,9.73
2022-09-25T14:48:54.324Z,9.73
2022-09-25T14:54:20.429Z,9.10
2022-09-25T14:59:50.989Z,7.85
2022-09-25T15:05:28.762Z,7.50
2022-09-25T15:11:02.787Z,6.30
2022-09-25T15:16:45.617Z,4.72
2022-09-25T15:22:21.623Z,5.90
2022-09-25T15:27:43.535Z,9.32
2022-09-25T15:33:05.213Z,6.93
2022-09-25T15:38:31.070Z,5.53
2022-09-25T15:44:17.463Z,7.50
2022-09-25T15:49:42.771Z,7.63
2022-09-25T15:55:14.570Z,8.57
2022-09-25T16:00:54.837Z,9.45
2022-09-25T16:06:17.239Z,8.93
2022-09-25T16:11:39.078Z,8.00
2022-09-25T16:17:00.762Z,7.70
2022-09-25T16:22:23.808Z,3.17
2022-09-25T16:27:46.862Z,2.95
2022-09-25T16:33:23.697Z,4.80
2022-09-25T16:39:12.917Z,3.45
2022-09-25T16:44:39.784Z,2.10
2022-09-25T16:50:01.478Z,2.63
2022-09-25T16:55:27.284Z,2.40
2022-09-25T17:00:50.074Z,3.17
2022-09-25T17:06:11.818Z,4.53
2022-09-25T17:11:34.468Z,3.80
2022-09-25T17:16:57.374Z,3.10
2022-09-25T17:22:19.038Z,3.53
2022-09-25T17:27:40.766Z,3.03
2022-09-25T17:33:05.561Z,4.32
2022-09-25T17:38:27.456Z,6.20
2022-09-25T17:43:49.288Z,6.07
2022-09-25T17:49:11.513Z,6.78
2022-09-25T17:54:33.309Z,7.63
2022-09-25T17:59:55.599Z,7.70
2022-09-25T18:05:18.771Z,8.02
2022-09-25T18:10:41.243Z,8.32
2022-09-25T18:16:04.233Z,9.65
2022-09-25T18:21:44.706Z,9.05
2022-09-25T18:27:06.539Z,9.80
2022-09-25T18:32:28.295Z,10.45
2022-09-25T18:37:50.418Z,12.15
2022-09-25T18:43:12.116Z,11.73
2022-09-25T18:48:35.477Z,12.50
2022-09-25T18:53:57.223Z,14.20
2022-09-25T18:59:18.982Z,14.13
2022-09-25T19:04:40.858Z,13.15
2022-09-25T19:10:07.725Z,14.95
2022-09-25T19:15:29.664Z,14.93
2022-09-25T19:20:54.606Z,15.32
2022-09-25T19:26:22.217Z,14.55
2022-09-25T19:31:45.125Z,14.52
2022-09-25T19:37:07.324Z,13.52
2022-09-25T19:42:33.417Z,17.27
2022-09-25T19:47:55.303Z,14.35
2022-09-25T19:53:18.912Z,15.80
2022-09-25T19:58:40.873Z,17.77
2022-09-25T20:04:06.623Z,16.65
2022-09-25T20:09:29.950Z,17.00
2022-09-25T20:14:51.919Z,13.10
2022-09-25T20:20:14.285Z,14.63
2022-09-25T20:25:37.181Z,19.42
2022-09-25T20:31:03.450Z,13.50
2022-09-25T20:36:25.454Z,14.07
2022-09-25T20:41:47.228Z,17.58
2022-09-25T20:47:09.087Z,14.30
2022-09-25T20:52:33.858Z,13.95
2022-09-25T20:57:55.569Z,15.52
2022-09-25T21:03:17.355Z,14.57
2022-09-25T21:08:39.183Z,13.77
2022-09-25T21:14:03.288Z,13.15
2022-09-25T21:19:25.453Z,17.58
2022-09-25T21:24:47.144Z,12.23
2022-09-25T21:30:09.405Z,10.73
2022-09-25T21:35:31.463Z,11.30
2022-09-25T21:41:01.879Z,8.27
2022-09-25T21:46:24.871Z,8.18
2022-09-25T21:51:48.203Z,7.22
2022-09-25T21:57:09.859Z,10.52
2022-09-25T22:02:31.619Z,10.98
2022-09-25T22:07:53.371Z,11.30
2022-09-25T22:13:15.031Z,10.63
2022-09-25T22:18:41.962Z,11.95
2022-09-25T22:24:04.803Z,11.60
2022-09-25T22:29:26.544Z,11.02
2022-09-25T22:34:48.246Z,9.75
2022-09-25T22:40:10.106Z,11.63
2022-09-25T22:45:32.537Z,10.20
2022-09-25T22:50:55.674Z,11.48
2022-09-25T22:56:23.001Z,10.25
2022-09-25T23:01:53.919Z,9.45
2022-09-25T23:07:15.789Z,10.75
2022-09-25T23:12:37.479Z,8.90
2022-09-25T23:17:59.270Z,7.57
2022-09-25T23:23:21.555Z,8.57
2022-09-25T23:28:43.230Z,14.65
2022-09-25T23:34:05.085Z,9.95
2022-09-25T23:39:27.143Z,10.95
2022-09-25T23:44:49.002Z,11.95
2022-09-25T23:50:10.719Z,8.80
2022-09-25T23:55:33.329Z,9.05
